Time;durP1;ratioP1;P1;durP2;ratioP2;P2;SDS_P1;SDS_P2;PMS_P1;PMS_P2;Temp;Humidity;BMP_temperature;BMP_pressure;BME280_temperature;BME280_humidity;BME280_pressure;Samples;Min_cycle;Max_cycle;Signal;HPM_P1;HPM_P2
2024/03/08 00:00:13;;;;;;;26.00;14.55;;;;;;;6.58;100.00;99463.63;4993889;28;20415;-68
2024/03/08 00:02:39;;;;;;;25.10;14.82;;;;;;;6.53;100.00;99458.97;4973184;28;20023;-68
2024/03/08 00:05:06;;;;;;;29.45;15.70;;;;;;;6.52;100.00;99451.81;4976266;28;20073;-68
2024/03/08 00:07:32;;;;;;;29.88;15.45;;;;;;;6.50;100.00;99448.53;4985097;28;20478;-68
2024/03/08 00:09:58;;;;;;;27.48;15.57;;;;;;;6.46;100.00;99442.78;4996076;28;20031;-68
2024/03/08 00:12:24;;;;;;;30.13;16.55;;;;;;;6.41;100.00;99444.78;5020131;28;20030;-68
2024/03/08 00:14:51;;;;;;;28.83;16.73;;;;;;;6.43;100.00;99440.56;5016539;28;20023;-68
2024/03/08 00:17:16;;;;;;;29.45;16.00;;;;;;;6.41;100.00;99434.56;4995346;28;20479;-68
2024/03/08 00:19:42;;;;;;;31.20;16.35;;;;;;;6.40;100.00;99438.41;5008618;28;20031;-68
2024/03/08 00:22:07;;;;;;;30.70;16.70;;;;;;;6.35;100.00;99441.25;4995232;28;20026;-68
2024/03/08 00:24:33;;;;;;;26.80;15.38;;;;;;;6.30;100.00;99433.03;4984916;28;20030;-68
2024/03/08 00:26:58;;;;;;;30.83;17.95;;;;;;;6.30;100.00;99433.03;4995408;28;20038;-68
2024/03/08 00:29:24;;;;;;;28.77;16.00;;;;;;;6.28;100.00;99434.41;5025572;28;20026;-68
2024/03/08 00:31:49;;;;;;;28.73;15.70;;;;;;;6.24;100.00;99423.13;4978637;28;20069;-68
2024/03/08 00:34:15;;;;;;;26.95;15.15;;;;;;;6.28;100.00;99423.41;4986444;28;20033;-68
2024/03/08 00:36:41;;;;;;;30.17;15.48;;;;;;;6.25;100.00;99414.59;4963341;28;20026;-68
2024/03/08 00:39:06;;;;;;;26.52;14.75;;;;;;;6.24;100.00;99403.84;5011666;28;20065;-68
2024/03/08 00:41:32;;;;;;;32.05;16.25;;;;;;;6.16;100.00;99399.81;4999546;28;20030;-68
2024/03/08 00:43:58;;;;;;;29.52;16.20;;;;;;;6.21;100.00;99401.66;5017864;28;20110;-68
2024/03/08 00:46:23;;;;;;;28.80;16.08;;;;;;;6.22;100.00;99395.06;4990053;28;20064;-68
2024/03/08 00:48:49;;;;;;;29.58;15.93;;;;;;;6.16;100.00;99387.97;4991367;28;20031;-68
2024/03/08 00:51:15;;;;;;;28.20;15.88;;;;;;;6.18;100.00;99386.53;4989019;28;20034;-68
2024/03/08 00:53:41;;;;;;;31.15;15.73;;;;;;;6.14;100.00;99374.44;5006853;28;20565;-68
2024/03/08 00:56:09;;;;;;;31.70;16.50;;;;;;;6.08;100.00;99374.81;4991845;28;20058;-68
2024/03/08 00:58:38;;;;;;;27.20;15.93;;;;;;;6.13;100.00;99385.75;4989958;28;20023;-68
2024/03/08 01:01:04;;;;;;;28.80;15.25;;;;;;;6.11;100.00;99382.50;4975274;28;20411;-68
2024/03/08 01:03:34;;;;;;;31.52;17.02;;;;;;;6.08;100.00;99383.09;5007727;28;20037;-68
2024/03/08 01:06:01;;;;;;;28.17;15.95;;;;;;;6.09;100.00;99388.28;4994795;28;20491;-68
2024/03/08 01:08:27;;;;;;;28.88;15.75;;;;;;;6.03;100.00;99372.91;5010987;28;20113;-68
2024/03/08 01:10:53;;;;;;;25.00;14.88;;;;;;;6.02;100.00;99380.38;4994558;28;20113;-68
2024/03/08 01:13:19;;;;;;;28.83;14.95;;;;;;;6.06;100.00;99371.53;4994606;28;20077;-68
2024/03/08 01:15:44;;;;;;;26.20;15.45;;;;;;;6.01;100.00;99370.44;4994883;28;20034;-67
2024/03/08 01:18:10;;;;;;;25.52;15.27;;;;;;;6.04;100.00;99363.53;4977131;28;20033;-67
2024/03/08 01:20:36;;;;;;;26.50;14.98;;;;;;;5.96;100.00;99353.97;4995985;28;20049;-68
2024/03/08 01:23:01;;;;;;;26.35;14.60;;;;;;;5.97;100.00;99361.13;4994519;28;20463;-68
2024/03/08 01:25:27;;;;;;;26.02;14.77;;;;;;;5.96;100.00;99347.63;5010992;28;20030;-68
2024/03/08 01:27:53;;;;;;;26.13;15.18;;;;;;;5.99;100.00;99342.38;5007592;28;20058;-67
2024/03/08 01:30:19;;;;;;;30.02;15.93;;;;;;;6.00;100.00;99341.25;4990943;28;20060;-68
2024/03/08 01:32:44;;;;;;;25.33;14.55;;;;;;;5.98;100.00;99340.72;4994148;28;20069;-68
2024/03/08 01:35:10;;;;;;;26.20;14.35;;;;;;;5.98;100.00;99334.38;4993443;28;20669;-67
2024/03/08 01:37:36;;;;;;;25.85;14.32;;;;;;;5.92;100.00;99332.78;5007582;28;20030;-68
2024/03/08 01:40:02;;;;;;;25.95;13.85;;;;;;;5.93;100.00;99335.25;4973014;28;20510;-67
2024/03/08 01:42:28;;;;;;;26.10;14.25;;;;;;;5.94;100.00;99330.59;4985499;28;20087;-67
2024/03/08 01:44:54;;;;;;;24.27;14.05;;;;;;;5.90;100.00;99329.47;5010593;28;20042;-68
2024/03/08 01:47:22;;;;;;;22.90;13.38;;;;;;;5.91;100.00;99320.94;4993816;28;20040;-67
2024/03/08 01:49:51;;;;;;;25.42;14.00;;;;;;;5.89;100.00;99323.16;4994144;28;20510;-68
2024/03/08 01:52:18;;;;;;;24.13;12.82;;;;;;;5.89;100.00;99320.41;5008340;28;20073;-68
2024/03/08 01:54:44;;;;;;;25.50;13.85;;;;;;;5.88;100.00;99309.66;5003287;28;20038;-68
2024/03/08 01:57:10;;;;;;;26.05;14.05;;;;;;;5.89;100.00;99309.38;5007613;28;20115;-67
2024/03/08 01:59:35;;;;;;;23.98;13.88;;;;;;;5.84;100.00;99306.66;4975904;28;20027;-68
2024/03/08 02:02:02;;;;;;;23.77;12.98;;;;;;;5.83;100.00;99296.78;4951092;28;20254;-67
2024/03/08 02:04:28;;;;;;;24.50;13.90;;;;;;;5.85;100.00;99310.25;4978035;28;20061;-67
2024/03/08 02:06:53;;;;;;;24.27;14.00;;;;;;;5.82;100.00;99298.72;4993884;28;20045;-67
2024/03/08 02:09:19;;;;;;;27.67;13.90;;;;;;;5.80;100.00;99295.41;4993869;28;20475;-68
2024/03/08 02:11:45;;;;;;;23.50;13.38;;;;;;;5.83;100.00;99297.59;5010004;28;20065;-68
2024/03/08 02:14:11;;;;;;;27.75;14.27;;;;;;;5.85;100.00;99299.22;4993935;28;20475;-68
2024/03/08 02:16:37;;;;;;;26.20;14.13;;;;;;;5.82;100.00;99289.59;4993889;28;20041;-68
2024/03/08 02:19:03;;;;;;;23.80;13.27;;;;;;;5.85;100.00;99293.72;4995075;28;20034;-68
2024/03/08 02:21:28;;;;;;;23.38;13.13;;;;;;;5.80;100.00;99286.34;5003879;28;20030;-68
2024/03/08 02:23:54;;;;;;;23.30;13.35;;;;;;;5.80;100.00;99276.13;4991728;28;20043;-68
2024/03/08 02:26:19;;;;;;;23.27;13.52;;;;;;;5.80;100.00;99272.56;4958474;28;20033;-67
2024/03/08 02:28:45;;;;;;;25.92;14.32;;;;;;;5.76;100.00;99265.97;4977525;28;20727;-68
2024/03/08 02:31:11;;;;;;;25.10;12.80;;;;;;;5.77;100.00;99262.13;4993351;28;20046;-67
2024/03/08 02:33:37;;;;;;;25.83;13.70;;;;;;;5.77;100.00;99270.41;4977363;28;20638;-68
2024/03/08 02:36:03;;;;;;;23.95;13.38;;;;;;;5.76;100.00;99266.78;4977075;28;20057;-68
2024/03/08 02:38:29;;;;;;;23.92;13.13;;;;;;;5.72;100.00;99251.97;4982721;28;20035;-67
2024/03/08 02:40:54;;;;;;;24.02;12.95;;;;;;;5.74;100.00;99246.16;4993847;28;20038;-68
2024/03/08 02:43:21;;;;;;;26.50;13.90;;;;;;;5.69;100.00;99244.31;4993740;28;20032;-67
2024/03/08 02:45:47;;;;;;;23.63;13.52;;;;;;;5.68;100.00;99233.56;4991773;28;20512;-68
2024/03/08 02:48:13;;;;;;;23.35;13.02;;;;;;;5.63;100.00;99233.63;4997080;28;20027;-68
2024/03/08 02:50:44;;;;;;;24.90;13.25;;;;;;;5.62;100.00;99229.22;5026103;28;20041;-67
2024/03/08 02:53:11;;;;;;;23.63;13.07;;;;;;;5.60;100.00;99227.59;4981795;28;20037;-68
2024/03/08 02:55:37;;;;;;;22.88;12.15;;;;;;;5.54;100.00;99219.66;5028705;28;20035;-67
2024/03/08 02:58:03;;;;;;;23.60;13.82;;;;;;;5.53;100.00;99213.34;4964987;28;20027;-68
2024/03/08 03:00:30;;;;;;;25.67;14.93;;;;;;;5.51;100.00;99206.50;4991477;28;20097;-67
2024/03/08 03:02:56;;;;;;;23.50;13.25;;;;;;;5.51;100.00;99201.78;4976080;28;20033;-68
2024/03/08 03:05:22;;;;;;;25.52;13.77;;;;;;;5.50;100.00;99204.84;4981014;28;20475;-68
2024/03/08 03:07:48;;;;;;;24.02;13.57;;;;;;;5.48;100.00;99201.56;4995701;28;20085;-68
2024/03/08 03:10:16;;;;;;;24.10;13.40;;;;;;;5.48;100.00;99204.31;4977823;28;20035;-68
2024/03/08 03:12:42;;;;;;;23.60;12.73;;;;;;;5.45;100.00;99193.88;4980387;28;20109;-67
2024/03/08 03:15:08;;;;;;;22.33;12.75;;;;;;;5.43;100.00;99196.91;4993777;28;20037;-68
2024/03/08 03:17:33;;;;;;;26.42;14.10;;;;;;;5.43;100.00;99196.91;4960247;28;20084;-67
2024/03/08 03:19:59;;;;;;;24.52;13.48;;;;;;;5.43;100.00;99188.66;4994871;28;20031;-67
2024/03/08 03:22:25;;;;;;;23.83;13.15;;;;;;;5.42;100.00;99181.53;4995566;28;20026;-68
2024/03/08 03:24:51;;;;;;;25.35;13.63;;;;;;;5.38;100.00;99175.78;4998076;28;20534;-67
2024/03/08 03:27:17;;;;;;;26.70;14.30;;;;;;;5.38;100.00;99174.97;5012918;28;20065;-67
2024/03/08 03:29:45;;;;;;;24.50;14.13;;;;;;;5.36;100.00;99177.19;4993691;28;20058;-67
2024/03/08 03:32:14;;;;;;;25.52;13.13;;;;;;;5.33;100.00;99186.03;5002486;28;20082;-68
2024/03/08 03:34:40;;;;;;;23.42;13.10;;;;;;;5.33;100.00;99175.84;4984750;28;20041;-67
2024/03/08 03:37:06;;;;;;;28.27;14.27;;;;;;;5.31;100.00;99185.50;4996280;28;20026;-67
2024/03/08 03:39:32;;;;;;;24.73;13.38;;;;;;;5.25;100.00;99176.47;4986091;28;20498;-67
2024/03/08 03:41:58;;;;;;;24.90;13.40;;;;;;;5.25;100.00;99172.91;5004223;28;20053;-67
2024/03/08 03:44:24;;;;;;;21.50;12.30;;;;;;;5.24;100.00;99163.03;5006586;28;20057;-67
2024/03/08 03:46:50;;;;;;;23.80;13.32;;;;;;;5.22;100.00;99154.22;4996114;28;20030;-67
2024/03/08 03:49:16;;;;;;;26.70;14.85;;;;;;;5.20;100.00;99151.75;4998222;28;20030;-68
2024/03/08 03:51:42;;;;;;;25.02;13.77;;;;;;;5.19;100.00;99158.38;4996060;28;20037;-68
2024/03/08 03:54:08;;;;;;;28.20;14.18;;;;;;;5.18;100.00;99166.91;5000477;28;20519;-67
2024/03/08 03:56:33;;;;;;;27.80;13.63;;;;;;;5.14;100.00;99148.25;4996228;28;20065;-67
2024/03/08 03:58:59;;;;;;;25.27;14.32;;;;;;;5.12;100.00;99138.63;5008321;28;20035;-67
2024/03/08 04:01:24;;;;;;;28.45;14.02;;;;;;;5.09;100.00;99133.72;5001698;28;20397;-68
2024/03/08 04:03:50;;;;;;;25.60;14.80;;;;;;;5.04;100.00;99139.25;4996049;28;20030;-67
2024/03/08 04:06:15;;;;;;;26.27;14.63;;;;;;;5.05;100.00;99141.75;4995909;28;20050;-68
2024/03/08 04:08:41;;;;;;;28.20;15.00;;;;;;;5.03;100.00;99134.88;5016287;28;20044;-67
2024/03/08 04:11:08;;;;;;;29.92;15.90;;;;;;;5.02;100.00;99134.06;4990102;28;20026;-67
2024/03/08 04:13:34;;;;;;;27.33;15.82;;;;;;;5.02;100.00;99134.06;4979599;28;20049;-67
2024/03/08 04:15:59;;;;;;;28.02;15.93;;;;;;;5.00;100.00;99132.72;4995906;28;20518;-67
2024/03/08 04:18:25;;;;;;;28.63;16.27;;;;;;;4.98;100.00;99135.75;5001940;28;20023;-68
2024/03/08 04:20:51;;;;;;;31.15;16.40;;;;;;;4.94;100.00;99129.19;4995676;28;20065;-67
2024/03/08 04:23:17;;;;;;;29.95;15.88;;;;;;;4.90;100.00;99126.22;4988209;28;20031;-68
2024/03/08 04:25:43;;;;;;;34.00;17.13;;;;;;;4.91;100.00;99129.78;4992252;28;20149;-68
2024/03/08 04:28:11;;;;;;;27.80;15.23;;;;;;;4.82;100.00;99121.34;4995491;28;20030;-68
2024/03/08 04:30:39;;;;;;;31.42;16.50;;;;;;;4.83;100.00;99116.66;4979341;28;20026;-68
2024/03/08 04:33:05;;;;;;;32.10;16.92;;;;;;;4.83;100.00;99109.22;4995431;28;20033;-68
2024/03/08 04:35:30;;;;;;;32.95;17.63;;;;;;;4.83;100.00;99106.47;4979176;28;20036;-68
2024/03/08 04:37:57;;;;;;;33.22;17.23;;;;;;;4.81;100.00;99096.84;4992011;28;20060;-68
2024/03/08 04:40:23;;;;;;;31.08;16.65;;;;;;;4.81;100.00;99097.69;4993645;28;20110;-68
2024/03/08 04:42:50;;;;;;;37.25;18.88;;;;;;;4.85;100.00;99093.25;5018863;28;20085;-68
2024/03/08 04:45:16;;;;;;;32.30;17.80;;;;;;;4.86;100.00;99088.56;5010648;28;20113;-68
2024/03/08 04:47:42;;;;;;;37.40;19.00;;;;;;;4.82;100.00;99084.75;4995239;28;20027;-68
2024/03/08 04:50:08;;;;;;;37.33;19.15;;;;;;;4.78;100.00;99084.50;4988044;28;20053;-68
2024/03/08 04:52:34;;;;;;;38.40;19.25;;;;;;;4.84;100.00;99085.28;4993271;28;20046;-68
2024/03/08 04:55:00;;;;;;;38.75;19.48;;;;;;;4.87;100.00;99087.44;5022727;28;20037;-67
2024/03/08 04:57:26;;;;;;;37.60;19.08;;;;;;;4.85;100.00;99085.00;4979222;28;20065;-67
2024/03/08 04:59:51;;;;;;;37.30;19.58;;;;;;;4.83;100.00;99081.72;4980004;28;20045;-67
2024/03/08 05:02:17;;;;;;;37.45;19.88;;;;;;;4.80;100.00;99076.78;4975425;28;20027;-67
2024/03/08 05:04:43;;;;;;;38.58;20.80;;;;;;;4.84;100.00;99085.28;4991784;28;20030;-68
2024/03/08 05:07:09;;;;;;;40.33;20.50;;;;;;;4.84;100.00;99079.78;5015664;28;20070;-67
2024/03/08 05:09:36;;;;;;;43.95;20.85;;;;;;;4.83;100.00;99075.38;4994799;28;20030;-67
2024/03/08 05:12:01;;;;;;;41.35;20.58;;;;;;;4.86;100.00;99063.81;4998355;28;20387;-68
2024/03/08 05:14:27;;;;;;;41.97;20.65;;;;;;;4.83;100.00;99064.38;4968288;28;20027;-68
2024/03/08 05:16:52;;;;;;;36.63;19.73;;;;;;;4.85;100.00;99068.50;5007649;28;20045;-68
2024/03/08 05:19:18;;;;;;;43.08;21.77;;;;;;;4.86;100.00;99067.38;4958086;28;20034;-68
2024/03/08 05:21:44;;;;;;;44.88;22.33;;;;;;;4.88;100.00;99061.59;4978540;28;20048;-67
2024/03/08 05:24:10;;;;;;;41.15;20.88;;;;;;;4.87;100.00;99048.94;5004307;28;20054;-67
2024/03/08 05:26:37;;;;;;;39.65;20.92;;;;;;;4.86;100.00;99052.81;4994608;28;20030;-68
2024/03/08 05:29:03;;;;;;;42.45;21.38;;;;;;;4.89;100.00;99060.47;4994339;28;20714;-68
2024/03/08 05:31:29;;;;;;;40.67;21.88;;;;;;;4.88;100.00;99053.34;4977644;28;20082;-68
2024/03/08 05:33:55;;;;;;;43.53;22.42;;;;;;;4.85;100.00;99046.47;4998836;28;20066;-68
2024/03/08 05:36:21;;;;;;;40.65;21.42;;;;;;;4.88;100.00;99045.91;4994677;28;20058;-68
2024/03/08 05:38:46;;;;;;;42.20;20.23;;;;;;;4.86;100.00;99050.88;4978312;28;20132;-68
2024/03/08 05:41:12;;;;;;;39.95;20.40;;;;;;;4.90;100.00;99040.09;4979628;28;20042;-68
2024/03/08 05:43:38;;;;;;;41.25;21.17;;;;;;;4.90;100.00;99051.09;5018535;28;20416;-68
2024/03/08 05:46:04;;;;;;;42.38;21.80;;;;;;;4.89;100.00;99054.97;4986438;28;20054;-67
2024/03/08 05:48:32;;;;;;;45.95;22.25;;;;;;;4.90;100.00;99053.84;4995384;28;20482;-68
2024/03/08 05:50:57;;;;;;;44.45;21.98;;;;;;;4.90;100.00;99053.84;4990728;28;20045;-67
2024/03/08 05:53:23;;;;;;;39.58;21.83;;;;;;;4.89;100.00;99058.53;4976529;28;20038;-67
2024/03/08 05:55:49;;;;;;;43.35;22.38;;;;;;;4.91;100.00;99056.31;4977768;28;20073;-68
2024/03/08 05:58:15;;;;;;;41.25;21.73;;;;;;;4.93;100.00;99058.75;4993733;28;20081;-68
2024/03/08 06:00:40;;;;;;;42.67;21.13;;;;;;;4.92;100.00;99057.94;4987038;28;20058;-67
2024/03/08 06:03:06;;;;;;;43.72;21.75;;;;;;;4.90;100.00;99059.34;4990574;28;20030;-67
2024/03/08 06:05:31;;;;;;;41.65;21.45;;;;;;;4.89;100.00;99057.72;4991864;28;20031;-67
2024/03/08 06:07:57;;;;;;;38.22;20.73;;;;;;;4.88;100.00;99053.34;4993754;28;20034;-67
2024/03/08 06:10:22;;;;;;;42.88;22.60;;;;;;;4.89;100.00;99055.78;4993817;28;20392;-67
2024/03/08 06:12:48;;;;;;;40.05;21.60;;;;;;;4.91;100.00;99053.56;4992191;28;20027;-68
2024/03/08 06:15:16;;;;;;;41.70;21.13;;;;;;;4.91;100.00;99052.75;4995328;28;20030;-68
2024/03/08 06:17:42;;;;;;;42.80;21.88;;;;;;;4.93;100.00;99056.00;5009637;28;20026;-67
2024/03/08 06:20:10;;;;;;;43.90;21.38;;;;;;;4.94;100.00;99043.91;4993683;28;20037;-67
2024/03/08 06:22:40;;;;;;;41.72;21.15;;;;;;;4.91;100.00;99056.31;4995709;28;20031;-68
2024/03/08 06:25:06;;;;;;;41.22;22.23;;;;;;;4.94;100.00;99057.66;4994567;28;20037;-68
2024/03/08 06:27:33;;;;;;;42.08;21.17;;;;;;;4.96;100.00;99049.94;4980765;28;20117;-67
2024/03/08 06:29:59;;;;;;;41.28;21.23;;;;;;;4.92;100.00;99040.63;5015179;28;20038;-68
2024/03/08 06:32:25;;;;;;;44.38;21.48;;;;;;;4.91;100.00;99055.50;5025490;28;20069;-68
2024/03/08 06:34:51;;;;;;;40.90;20.92;;;;;;;4.91;100.00;99050.81;4988541;28;20037;-68
2024/03/08 06:37:21;;;;;;;44.20;22.42;;;;;;;4.92;100.00;99059.88;5014194;28;20058;-68
2024/03/08 06:39:51;;;;;;;40.00;21.02;;;;;;;4.95;100.00;99053.78;5010122;28;20031;-68
2024/03/08 06:42:17;;;;;;;43.67;21.38;;;;;;;4.97;100.00;99056.25;4988994;28;20034;-68
2024/03/08 06:44:48;;;;;;;45.00;22.88;;;;;;;4.96;100.00;99057.34;5020170;28;20034;-67
2024/03/08 06:47:15;;;;;;;42.47;21.95;;;;;;;4.97;100.00;99051.56;5022570;28;20450;-68
2024/03/08 06:49:42;;;;;;;43.47;21.80;;;;;;;4.96;100.00;99052.69;4981349;28;20395;-68
2024/03/08 06:52:08;;;;;;;41.75;21.83;;;;;;;5.00;100.00;99053.75;5021789;28;20031;-68
2024/03/08 06:54:36;;;;;;;45.45;21.00;;;;;;;4.98;100.00;99047.69;4995913;28;20097;-68
2024/03/08 06:57:03;;;;;;;40.50;22.27;;;;;;;5.01;100.00;99049.84;5007628;28;20116;-68
2024/03/08 06:59:28;;;;;;;43.63;21.35;;;;;;;5.01;100.00;99049.84;4994203;28;20093;-68
2024/03/08 07:01:54;;;;;;;44.63;21.63;;;;;;;5.00;100.00;99053.75;5013002;28;20041;-68
2024/03/08 07:04:21;;;;;;;42.35;20.38;;;;;;;4.97;100.00;99051.56;5010474;28;20403;-68
2024/03/08 07:06:49;;;;;;;39.47;20.48;;;;;;;4.99;100.00;99049.34;5004521;28;20037;-68
2024/03/08 07:09:16;;;;;;;42.15;22.05;;;;;;;5.02;100.00;99050.72;4996818;28;20026;-67
2024/03/08 07:11:42;;;;;;;46.25;22.38;;;;;;;5.06;100.00;99046.25;5013347;28;20026;-67
2024/03/08 07:14:08;;;;;;;44.45;22.02;;;;;;;5.03;100.00;99042.13;4997030;28;20398;-67
2024/03/08 07:16:35;;;;;;;45.38;22.15;;;;;;;5.06;100.00;99047.06;4996834;28;20030;-68
2024/03/08 07:19:01;;;;;;;40.53;20.42;;;;;;;5.04;100.00;99049.31;4998146;28;20037;-68
2024/03/08 07:21:27;;;;;;;41.38;20.23;;;;;;;5.06;100.00;99052.56;5012986;28;20113;-68
2024/03/08 07:26:30;;;;;;;37.40;19.55;;;;;;;5.07;100.00;99047.88;5007296;28;20171;-68
2024/03/08 07:28:56;;;;;;;42.67;21.80;;;;;;;5.12;100.00;99042.31;4993963;28;20038;-68
2024/03/08 07:34:03;;;;;;;43.88;21.60;;;;;;;5.15;100.00;99038.97;4988167;28;20041;-67
2024/03/08 07:36:28;;;;;;;45.10;21.17;;;;;;;5.19;100.00;99045.53;4948647;28;20042;-68
2024/03/08 07:38:54;;;;;;;42.72;20.77;;;;;;;5.17;100.00;99046.94;4999412;28;20045;-68
2024/03/08 07:41:20;;;;;;;41.78;21.02;;;;;;;5.19;100.00;99048.28;4994483;28;20038;-67
2024/03/08 07:43:45;;;;;;;41.63;20.67;;;;;;;5.24;100.00;99041.91;4962192;28;20019;-67
2024/03/08 07:46:10;;;;;;;39.25;21.00;;;;;;;5.25;100.00;99047.09;5005442;28;20038;-67
2024/03/08 07:48:36;;;;;;;39.85;20.80;;;;;;;5.27;100.00;99041.31;4978083;28;20027;-67
2024/03/08 07:51:02;;;;;;;40.85;21.10;;;;;;;5.29;100.00;99041.81;4994785;28;20033;-67
2024/03/08 07:53:28;;;;;;;41.42;20.98;;;;;;;5.31;100.00;99040.41;4979886;28;20034;-68
2024/03/08 07:55:53;;;;;;;43.30;21.23;;;;;;;5.36;100.00;99036.78;5012711;28;20515;-68
2024/03/08 07:58:19;;;;;;;41.88;20.67;;;;;;;5.44;100.00;99029.81;4996342;28;20041;-68
2024/03/08 08:00:45;;;;;;;41.40;20.20;;;;;;;5.45;100.00;99026.75;4997112;28;20085;-68
2024/03/08 08:03:10;;;;;;;37.10;19.90;;;;;;;5.48;100.00;99028.91;4997392;28;20076;-68
2024/03/08 08:05:38;;;;;;;37.85;19.20;;;;;;;5.54;100.00;99021.38;5001109;28;20084;-68
2024/03/08 08:08:06;;;;;;;38.78;19.75;;;;;;;5.59;100.00;99016.63;4980156;28;20027;-68
2024/03/08 08:10:32;;;;;;;40.90;19.60;;;;;;;5.64;100.00;99007.47;4996434;28;20058;-68
2024/03/08 08:12:58;;;;;;;41.53;19.77;;;;;;;5.71;100.00;99007.09;4977908;28;20105;-68
2024/03/08 08:15:23;;;;;;;38.03;19.75;;;;;;;5.78;100.00;99010.31;4996143;28;20038;-68
2024/03/08 08:17:49;;;;;;;36.65;19.10;;;;;;;5.86;100.00;99009.63;4979086;28;20030;-67
2024/03/08 08:20:15;;;;;;;37.25;20.67;;;;;;;5.89;100.00;98991.69;4995767;28;20026;-68
2024/03/08 08:22:40;;;;;;;38.97;19.75;;;;;;;5.95;100.00;98991.31;4994139;28;20088;-68
2024/03/08 08:25:12;;;;;;;35.80;18.80;;;;;;;6.03;100.00;98989.81;4979782;28;20675;-68
2024/03/08 08:27:39;;;;;;;38.60;19.63;;;;;;;6.10;100.00;98990.25;4980141;28;20128;-68
2024/03/08 08:30:07;;;;;;;35.92;19.25;;;;;;;6.16;100.00;98977.22;4984993;28;20153;-68
2024/03/08 08:32:34;;;;;;;34.40;18.30;;;;;;;6.24;100.00;98984.75;4962839;28;20105;-68
2024/03/08 08:35:00;;;;;;;33.22;17.85;;;;;;;6.30;100.00;98982.75;4990063;28;20048;-68
2024/03/08 08:37:25;;;;;;;33.72;17.60;;;;;;;6.35;100.00;98983.50;4947032;28;20022;-68
2024/03/08 08:39:52;;;;;;;35.75;18.60;;;;;;;6.42;100.00;98978.38;4992499;28;20043;-68
2024/03/08 08:42:18;;;;;;;34.90;18.98;;;;;;;6.47;100.00;98983.81;5005500;28;20097;-68
2024/03/08 08:44:43;;;;;;;44.75;19.60;;;;;;;6.51;100.00;98972.97;5000980;28;20084;-68
2024/03/08 08:47:08;;;;;;;33.05;17.92;;;;;;;6.59;100.00;98977.78;5020837;28;20602;-68
2024/03/08 08:49:35;;;;;;;35.67;19.33;;;;;;;6.67;100.00;98970.75;4994195;28;20038;-68
2024/03/08 08:52:00;;;;;;;30.67;17.55;;;;;;;6.73;100.00;98977.78;4993016;28;20026;-68
2024/03/08 08:54:27;;;;;;;36.05;19.02;;;;;;;6.80;100.00;98971.84;5017920;28;20471;-68
2024/03/08 08:56:53;;;;;;;34.50;18.98;;;;;;;6.88;100.00;98971.16;4978899;28;20668;-68
2024/03/08 08:59:19;;;;;;;35.40;18.25;;;;;;;6.92;100.00;98972.19;5008018;28;20061;-68
2024/03/08 09:01:48;;;;;;;31.05;17.27;;;;;;;7.03;100.00;98975.56;4959200;28;20074;-68
2024/03/08 09:04:13;;;;;;;30.67;17.83;;;;;;;7.10;100.00;98978.69;5007272;28;20034;-68
2024/03/08 09:06:41;;;;;;;33.05;17.63;;;;;;;7.18;100.00;98977.97;4976102;28;20084;-68
2024/03/08 09:09:09;;;;;;;31.25;17.77;;;;;;;7.24;100.00;98981.44;4998002;28;20034;-68
2024/03/08 09:11:34;;;;;;;31.20;16.77;;;;;;;7.33;100.00;98968.56;5007177;28;20039;-68
2024/03/08 09:14:01;;;;;;;29.90;16.50;;;;;;;7.37;100.00;98970.38;4978207;28;20026;-68
2024/03/08 09:16:27;;;;;;;33.78;18.52;;;;;;;7.42;100.00;98965.88;5023160;28;20497;-68
2024/03/08 09:18:52;;;;;;;35.03;18.65;;;;;;;7.51;100.00;98964.81;4994546;28;20061;-68
2024/03/08 09:21:18;;;;;;;31.08;17.50;;;;;;;7.57;100.00;98958.03;5009828;28;20026;-68
2024/03/08 09:23:44;;;;;;;32.47;17.55;;;;;;;7.63;100.00;98960.69;4962029;28;20034;-68
2024/03/08 09:26:12;;;;;;;30.05;16.15;;;;;;;7.70;100.00;98948.06;4994578;28;20026;-68
2024/03/08 09:28:38;;;;;;;33.33;17.92;;;;;;;7.73;100.00;98949.41;4978742;28;20045;-69
2024/03/08 09:31:05;;;;;;;32.05;16.98;;;;;;;7.80;100.00;98945.06;5010674;28;20058;-68
2024/03/08 09:33:31;;;;;;;34.85;18.13;;;;;;;7.88;100.00;98948.19;4994157;28;20033;-68
2024/03/08 09:35:57;;;;;;;32.20;17.27;;;;;;;7.88;100.00;98950.97;5012447;28;20031;-68
2024/03/08 09:38:24;;;;;;;31.83;16.67;;;;;;;7.94;100.00;98944.16;4962449;28;20037;-68
2024/03/08 09:40:51;;;;;;;27.88;16.25;;;;;;;8.00;100.00;98942.94;5015786;28;20042;-68
2024/03/08 09:43:18;;;;;;;29.35;16.63;;;;;;;8.04;100.00;98928.16;4994437;28;20659;-69
2024/03/08 09:45:43;;;;;;;32.95;17.17;;;;;;;8.10;100.00;98922.50;5001903;28;20073;-68
2024/03/08 09:48:12;;;;;;;27.88;16.10;;;;;;;8.16;100.00;98926.75;4998260;28;20038;-68
2024/03/08 09:50:38;;;;;;;32.65;17.17;;;;;;;8.17;100.00;98909.03;4994370;28;20034;-68
2024/03/08 09:53:04;;;;;;;28.95;16.13;;;;;;;8.24;100.00;98912.97;5002774;28;20030;-68
2024/03/08 09:55:33;;;;;;;29.15;15.95;;;;;;;8.31;100.00;98918.06;5008467;28;20068;-68
2024/03/08 10:00:44;;;;;;;30.80;16.40;;;;;;;8.47;100.00;98924.03;4974640;28;20102;-68
2024/03/08 10:03:10;;;;;;;29.92;15.55;;;;;;;8.55;100.00;98909.38;4991411;28;20054;-69
2024/03/08 10:05:36;;;;;;;28.00;15.75;;;;;;;8.63;100.00;98910.56;4977903;28;20033;-69
2024/03/08 10:08:01;;;;;;;28.55;15.00;;;;;;;8.70;100.00;98905.41;4994046;28;20038;-68
2024/03/08 10:10:27;;;;;;;24.88;14.75;;;;;;;8.79;100.00;98908.19;4994860;28;20027;-68
2024/03/08 10:12:52;;;;;;;27.85;14.27;;;;;;;8.89;100.00;98899.59;4958883;28;20035;-68
2024/03/08 10:15:18;;;;;;;24.70;14.07;;;;;;;9.00;100.00;98892.63;4990281;28;20046;-68
2024/03/08 10:17:43;;;;;;;23.80;14.68;;;;;;;9.07;100.00;98887.41;4958799;28;20026;-68
2024/03/08 10:20:18;;;;;;;26.70;14.45;;;;;;;9.20;100.00;98888.41;4976554;28;20026;-69
2024/03/08 10:22:44;;;;;;;25.00;13.85;;;;;;;9.27;100.00;98891.50;5008379;28;20033;-68
2024/03/08 10:25:12;;;;;;;23.55;12.68;;;;;;;9.36;100.00;98880.41;4990622;28;20476;-68
2024/03/08 10:27:39;;;;;;;20.90;13.20;;;;;;;9.47;100.00;98878.97;4974469;28;20038;-68
2024/03/08 10:30:08;;;;;;;21.35;12.63;;;;;;;9.56;100.00;98878.97;4970707;28;20034;-68
2024/03/08 10:32:33;;;;;;;22.50;12.65;;;;;;;9.65;100.00;98862.31;5006212;28;20050;-68
2024/03/08 10:34:59;;;;;;;19.20;11.25;;;;;;;9.74;100.00;98863.91;4987757;28;20033;-69
2024/03/08 10:37:24;;;;;;;19.77;11.93;;;;;;;9.86;100.00;98854.91;4995603;28;20077;-68
2024/03/08 10:40:15;;;;;;;20.35;11.10;;;;;;;9.99;100.00;98853.91;5001365;28;20034;-68
2024/03/08 10:42:51;;;;;;;18.33;10.32;;;;;;;10.07;100.00;98861.41;4982523;28;20026;-68
2024/03/08 10:45:23;;;;;;;18.73;11.05;;;;;;;10.17;100.00;98851.91;4977055;28;20041;-69
2024/03/08 10:47:49;;;;;;;21.23;11.73;;;;;;;10.26;100.00;98840.78;5003016;28;20038;-68
2024/03/08 10:50:22;;;;;;;21.40;10.93;;;;;;;10.36;100.00;98836.84;5000450;28;20044;-68
2024/03/08 10:52:49;;;;;;;19.33;11.43;;;;;;;10.40;100.00;98826.72;4973987;28;20558;-68
2024/03/08 10:55:15;;;;;;;20.70;11.90;;;;;;;10.46;100.00;98828.16;4993099;28;20096;-68
2024/03/08 10:57:41;;;;;;;20.52;11.70;;;;;;;10.55;100.00;98822.56;4990339;28;20028;-68
2024/03/08 11:00:10;;;;;;;19.70;11.35;;;;;;;10.62;100.00;98822.84;4972988;28;20466;-68
2024/03/08 11:02:37;;;;;;;18.27;9.90;;;;;;;10.71;100.00;98829.16;4968588;28;20581;-68
2024/03/08 11:05:03;;;;;;;21.73;10.10;;;;;;;10.82;100.00;98830.41;5021826;28;20023;-69
2024/03/08 11:07:36;;;;;;;16.27;9.23;;;;;;;10.92;100.00;98826.41;4994982;28;20026;-68
2024/03/08 11:10:04;;;;;;;13.32;7.85;;;;;;;11.04;100.00;98822.91;4994869;28;20045;-68
2024/03/08 11:12:36;;;;;;;14.88;8.27;;;;;;;11.16;100.00;98820.19;4994111;28;20039;-68
2024/03/08 11:15:10;;;;;;;14.15;8.45;;;;;;;11.28;100.00;98817.50;5001130;28;20026;-68
2024/03/08 11:17:39;;;;;;;10.75;7.00;;;;;;;11.38;100.00;98811.50;4981871;28;20733;-68
2024/03/08 11:20:20;;;;;;;15.77;7.50;;;;;;;11.50;100.00;98821.03;4996930;28;20418;-68